Nearby METAR Reports

 

KAVP - Avoca/Wilkes B., Pennsylvania, USA
Distance from station: N 16mi, 25km
Updated: 07/03/2022 7:54pm
Clear
Clear
 Wind from N
Wind: N 6 mph , 9 km/h
Temperature: 79°F , 26°C
Dew Point: 46°F , 8°C
Humidity: 32%
Barometer: 30.09 inHg , 1019 hPa
Clouds: Clear
Visibility: 10 miles , 16 km
2022/07/03 23:54 KAVP 032354Z 01005KT 10SM CLR 26/08 A3009 RMK AO2 SLP180 T02560078 10283 20256 53004 $
KMPO - Mt. Pocono, Pennsylvania, USA
Distance from station: E 20mi, 33km
Updated: 07/03/2022 7:53pm
Clear
Clear
 Wind from NW
Wind: NW 8 mph , 13 km/h
Temperature: 72°F , 22°C
Dew Point: 45°F , 7°C
Humidity: 38%
Barometer: 30.12 inHg , 1020 hPa
Clouds: Clear
Visibility: 10 miles , 16 km
2022/07/03 23:53 KMPO 032353Z AUTO 32007KT 10SM CLR 22/07 A3012 RMK AO2 SLP190 T02170067 10250 20217 53005
 
KABE - Allentown, Pennsylvania, USA
Distance from station: SSE 36mi, 58km
Updated: 07/03/2022 7:51pm
Clear
Clear
 Wind from N
Wind: N 7 mph , 11 km/h
Temperature: 79°F , 26°C
Dew Point: 52°F , 11°C
Humidity: 39%
Barometer: 30.05 inHg , 1017.6 hPa
Clouds: Clear
Visibility: 10 miles , 16 km
2022/07/03 23:51 KABE 032351Z 01006KT 10SM CLR 26/11 A3005 RMK AO2 SLP172 T02560111 10300 20256 53007
KXLL - Allentown Queen, Pennsylvania, USA
Distance from station: SSE 41mi, 65km
Updated: 07/03/2022 7:55pm
Clear
Clear
 Wind from N
Wind: N 10 mph , 17 km/h
Temperature: 81°F , 27°C
Dew Point: 52°F , 11°C
Humidity: 37%
Barometer: 30.06 inHg , 1017.9 hPa
Clouds: Clear
Visibility: 10 miles , 16 km
2022/07/03 23:55 KXLL 032355Z AUTO 35009KT 10SM CLR 27/11 A3006 RMK AO2